sensor_id;sensor_type;location;lat;lon;timestamp;pressure;altitude;pressure_sealevel;temperature;humidity
73817;BME280;62146;53.232;-1.304;2022-08-19T00:01:26;99885.28;;;21.71;90.24
73817;BME280;62146;53.232;-1.304;2022-08-19T00:04:02;99894.78;;;21.77;89.98
73817;BME280;62146;53.232;-1.304;2022-08-19T00:06:29;99881.91;;;21.74;90.33
73817;BME280;62146;53.232;-1.304;2022-08-19T00:08:57;99886.53;;;21.74;90.59
73817;BME280;62146;53.232;-1.304;2022-08-19T00:11:24;99895.50;;;21.57;92.29
73817;BME280;62146;53.232;-1.304;2022-08-19T00:13:52;99892.91;;;21.69;91.46
73817;BME280;62146;53.232;-1.304;2022-08-19T00:16:23;99887.50;;;21.69;91.04
73817;BME280;62146;53.232;-1.304;2022-08-19T00:18:53;99884.03;;;21.69;91.48
73817;BME280;62146;53.232;-1.304;2022-08-19T00:21:20;99884.84;;;21.61;92.30
73817;BME280;62146;53.232;-1.304;2022-08-19T00:23:47;99893.41;;;21.63;92.99
73817;BME280;62146;53.232;-1.304;2022-08-19T00:26:14;99889.47;;;21.60;93.16
73817;BME280;62146;53.232;-1.304;2022-08-19T00:28:41;99891.34;;;21.68;92.32
73817;BME280;62146;53.232;-1.304;2022-08-19T00:31:08;99892.47;;;21.59;92.43
73817;BME280;62146;53.232;-1.304;2022-08-19T00:33:35;99894.38;;;21.58;92.43
73817;BME280;62146;53.232;-1.304;2022-08-19T00:36:06;99885.94;;;21.68;92.65
73817;BME280;62146;53.232;-1.304;2022-08-19T00:38:37;99892.28;;;21.72;91.93
73817;BME280;62146;53.232;-1.304;2022-08-19T00:41:05;99887.50;;;21.69;91.83
73817;BME280;62146;53.232;-1.304;2022-08-19T00:43:33;99890.03;;;21.74;91.68
73817;BME280;62146;53.232;-1.304;2022-08-19T00:45:59;99889.56;;;21.72;91.62
73817;BME280;62146;53.232;-1.304;2022-08-19T00:48:27;99886.03;;;21.80;91.41
73817;BME280;62146;53.232;-1.304;2022-08-19T00:50:54;99886.03;;;21.80;91.40
73817;BME280;62146;53.232;-1.304;2022-08-19T00:53:24;99882.84;;;21.78;91.20
73817;BME280;62146;53.232;-1.304;2022-08-19T00:55:55;99892.09;;;21.77;90.90
73817;BME280;62146;53.232;-1.304;2022-08-19T00:58:28;99887.94;;;21.79;91.14
73817;BME280;62146;53.232;-1.304;2022-08-19T01:00:56;99886.88;;;21.72;91.95
73817;BME280;62146;53.232;-1.304;2022-08-19T01:03:23;99883.03;;;21.73;91.53
73817;BME280;62146;53.232;-1.304;2022-08-19T01:05:51;99887.38;;;21.66;92.02
73817;BME280;62146;53.232;-1.304;2022-08-19T01:08:20;99895.97;;;21.59;93.06
73817;BME280;62146;53.232;-1.304;2022-08-19T01:10:55;99898.34;;;21.61;93.30
73817;BME280;62146;53.232;-1.304;2022-08-19T01:13:25;99903.94;;;21.56;93.45
73817;BME280;62146;53.232;-1.304;2022-08-19T01:16:05;99905.69;;;21.52;94.01
73817;BME280;62146;53.232;-1.304;2022-08-19T01:18:38;99905.69;;;21.44;94.83
73817;BME280;62146;53.232;-1.304;2022-08-19T01:21:12;99920.91;;;21.56;93.49
73817;BME280;62146;53.232;-1.304;2022-08-19T01:23:44;99943.16;;;21.53;92.61
73817;BME280;62146;53.232;-1.304;2022-08-19T01:26:17;99945.56;;;21.38;91.54
73817;BME280;62146;53.232;-1.304;2022-08-19T01:28:46;99955.75;;;21.33;91.70
73817;BME280;62146;53.232;-1.304;2022-08-19T01:31:17;99954.44;;;21.22;91.90
73817;BME280;62146;53.232;-1.304;2022-08-19T01:33:55;99954.13;;;21.07;91.89
73817;BME280;62146;53.232;-1.304;2022-08-19T01:36:29;99955.88;;;20.94;92.05
73817;BME280;62146;53.232;-1.304;2022-08-19T01:38:57;99959.38;;;20.95;91.63
73817;BME280;62146;53.232;-1.304;2022-08-19T01:41:24;99969.22;;;20.99;91.78
73817;BME280;62146;53.232;-1.304;2022-08-19T01:43:52;99956.03;;;20.73;92.52
73817;BME280;62146;53.232;-1.304;2022-08-19T01:46:39;99960.75;;;20.67;91.98
73817;BME280;62146;53.232;-1.304;2022-08-19T01:49:06;99971.06;;;20.66;92.03
73817;BME280;62146;53.232;-1.304;2022-08-19T01:51:35;99973.16;;;20.68;92.11
73817;BME280;62146;53.232;-1.304;2022-08-19T01:54:06;99965.06;;;20.60;92.00
73817;BME280;62146;53.232;-1.304;2022-08-19T01:56:35;99966.31;;;20.71;90.50
73817;BME280;62146;53.232;-1.304;2022-08-19T01:59:05;99963.16;;;20.61;89.19
73817;BME280;62146;53.232;-1.304;2022-08-19T02:01:34;99975.50;;;20.53;88.24
73817;BME280;62146;53.232;-1.304;2022-08-19T02:04:02;99979.56;;;20.42;89.50
73817;BME280;62146;53.232;-1.304;2022-08-19T02:06:29;99977.50;;;20.48;89.46
73817;BME280;62146;53.232;-1.304;2022-08-19T02:08:55;99977.31;;;20.44;88.85
73817;BME280;62146;53.232;-1.304;2022-08-19T02:11:34;99973.44;;;20.20;90.76
73817;BME280;62146;53.232;-1.304;2022-08-19T02:14:04;99979.16;;;20.19;89.15
73817;BME280;62146;53.232;-1.304;2022-08-19T02:16:32;99981.34;;;20.17;89.58
73817;BME280;62146;53.232;-1.304;2022-08-19T02:18:59;99984.03;;;20.09;91.10
73817;BME280;62146;53.232;-1.304;2022-08-19T02:21:27;99988.63;;;20.08;90.24
73817;BME280;62146;53.232;-1.304;2022-08-19T02:23:55;99993.97;;;20.00;90.95
73817;BME280;62146;53.232;-1.304;2022-08-19T02:26:22;99999.19;;;19.96;91.31
73817;BME280;62146;53.232;-1.304;2022-08-19T02:28:48;99994.72;;;19.92;92.15
73817;BME280;62146;53.232;-1.304;2022-08-19T02:31:18;99989.53;;;19.95;91.99
73817;BME280;62146;53.232;-1.304;2022-08-19T02:33:46;99994.38;;;19.85;92.78
73817;BME280;62146;53.232;-1.304;2022-08-19T02:36:15;99997.72;;;19.90;92.56
73817;BME280;62146;53.232;-1.304;2022-08-19T02:38:46;100001.88;;;19.96;91.92
73817;BME280;62146;53.232;-1.304;2022-08-19T02:41:31;99998.22;;;19.92;92.19
73817;BME280;62146;53.232;-1.304;2022-08-19T02:44:00;99998.50;;;19.91;91.14
73817;BME280;62146;53.232;-1.304;2022-08-19T02:46:47;100000.22;;;19.87;91.15
73817;BME280;62146;53.232;-1.304;2022-08-19T02:49:17;100002.25;;;19.82;91.90
73817;BME280;62146;53.232;-1.304;2022-08-19T02:51:45;100006.06;;;19.81;90.68
73817;BME280;62146;53.232;-1.304;2022-08-19T02:54:13;100006.81;;;19.73;90.58
73817;BME280;62146;53.232;-1.304;2022-08-19T02:56:41;100011.78;;;19.66;90.21
73817;BME280;62146;53.232;-1.304;2022-08-19T02:59:08;100017.00;;;19.62;90.86
73817;BME280;62146;53.232;-1.304;2022-08-19T03:01:38;100016.63;;;19.56;91.01
73817;BME280;62146;53.232;-1.304;2022-08-19T03:04:06;100029.16;;;19.60;91.35
73817;BME280;62146;53.232;-1.304;2022-08-19T03:06:37;100022.19;;;19.59;91.29
73817;BME280;62146;53.232;-1.304;2022-08-19T03:09:04;100017.06;;;19.71;91.00
73817;BME280;62146;53.232;-1.304;2022-08-19T03:11:32;100026.97;;;19.62;91.02
73817;BME280;62146;53.232;-1.304;2022-08-19T03:14:00;100026.19;;;19.61;91.04
73817;BME280;62146;53.232;-1.304;2022-08-19T03:16:30;100025.00;;;19.54;91.28
73817;BME280;62146;53.232;-1.304;2022-08-19T03:19:00;100018.94;;;19.49;91.68
73817;BME280;62146;53.232;-1.304;2022-08-19T03:21:29;100022.31;;;19.32;91.77
73817;BME280;62146;53.232;-1.304;2022-08-19T03:23:58;100029.28;;;19.33;91.89
73817;BME280;62146;53.232;-1.304;2022-08-19T03:26:25;100029.28;;;19.33;92.20
73817;BME280;62146;53.232;-1.304;2022-08-19T03:28:51;100028.00;;;19.31;92.13
73817;BME280;62146;53.232;-1.304;2022-08-19T03:31:25;100027.03;;;19.27;91.66
73817;BME280;62146;53.232;-1.304;2022-08-19T03:34:31;100028.19;;;19.34;91.46
73817;BME280;62146;53.232;-1.304;2022-08-19T03:37:05;100029.00;;;19.35;90.46
73817;BME280;62146;53.232;-1.304;2022-08-19T03:39:32;100036.25;;;19.34;90.92
73817;BME280;62146;53.232;-1.304;2022-08-19T03:41:59;100037.47;;;19.29;90.71
73817;BME280;62146;53.232;-1.304;2022-08-19T03:44:48;100038.38;;;19.24;89.77
73817;BME280;62146;53.232;-1.304;2022-08-19T03:47:15;100032.22;;;19.24;89.83
73817;BME280;62146;53.232;-1.304;2022-08-19T03:49:42;100038.13;;;19.34;90.14
73817;BME280;62146;53.232;-1.304;2022-08-19T03:52:08;100031.56;;;19.40;90.47
73817;BME280;62146;53.232;-1.304;2022-08-19T03:54:36;100035.81;;;19.19;91.55
73817;BME280;62146;53.232;-1.304;2022-08-19T03:57:04;100036.06;;;19.31;91.53
73817;BME280;62146;53.232;-1.304;2022-08-19T03:59:34;100032.63;;;19.17;91.71
73817;BME280;62146;53.232;-1.304;2022-08-19T04:02:05;100037.34;;;19.33;91.32
73817;BME280;62146;53.232;-1.304;2022-08-19T04:04:35;100050.06;;;19.41;90.56
73817;BME280;62146;53.232;-1.304;2022-08-19T04:07:03;100042.97;;;19.24;91.50
73817;BME280;62146;53.232;-1.304;2022-08-19T04:09:29;100048.09;;;19.12;92.07
73817;BME280;62146;53.232;-1.304;2022-08-19T04:11:57;100057.56;;;18.96;92.83
73817;BME280;62146;53.232;-1.304;2022-08-19T04:14:29;100047.44;;;18.93;92.86
73817;BME280;62146;53.232;-1.304;2022-08-19T04:16:59;100041.34;;;18.75;93.13
73817;BME280;62146;53.232;-1.304;2022-08-19T04:19:28;100048.63;;;18.74;93.10
73817;BME280;62146;53.232;-1.304;2022-08-19T04:21:55;100046.22;;;18.73;93.21
73817;BME280;62146;53.232;-1.304;2022-08-19T04:24:22;100045.44;;;18.59;92.68
73817;BME280;62146;53.232;-1.304;2022-08-19T04:26:49;100055.06;;;18.47;93.65
73817;BME280;62146;53.232;-1.304;2022-08-19T04:29:19;100049.03;;;18.54;93.50
73817;BME280;62146;53.232;-1.304;2022-08-19T04:31:48;100056.69;;;18.61;93.02
73817;BME280;62146;53.232;-1.304;2022-08-19T04:34:17;100061.06;;;18.57;92.83
73817;BME280;62146;53.232;-1.304;2022-08-19T04:36:45;100062.66;;;18.45;93.37
73817;BME280;62146;53.232;-1.304;2022-08-19T04:39:15;100079.66;;;18.40;93.23
73817;BME280;62146;53.232;-1.304;2022-08-19T04:41:42;100073.56;;;18.35;93.03
73817;BME280;62146;53.232;-1.304;2022-08-19T04:44:30;100068.22;;;18.35;93.01
73817;BME280;62146;53.232;-1.304;2022-08-19T04:46:58;100084.94;;;18.32;93.03
73817;BME280;62146;53.232;-1.304;2022-08-19T04:49:27;100087.63;;;18.32;92.47
73817;BME280;62146;53.232;-1.304;2022-08-19T04:51:54;100088.31;;;18.24;92.83
73817;BME280;62146;53.232;-1.304;2022-08-19T04:54:24;100097.53;;;18.31;92.61
73817;BME280;62146;53.232;-1.304;2022-08-19T04:57:06;100094.47;;;18.24;92.67
73817;BME280;62146;53.232;-1.304;2022-08-19T04:59:34;100107.81;;;18.29;92.46
73817;BME280;62146;53.232;-1.304;2022-08-19T05:02:02;100102.84;;;18.36;92.12
73817;BME280;62146;53.232;-1.304;2022-08-19T05:04:29;100093.16;;;18.35;91.54
73817;BME280;62146;53.232;-1.304;2022-08-19T05:06:57;100091.38;;;18.18;92.09
73817;BME280;62146;53.232;-1.304;2022-08-19T05:09:27;100104.78;;;18.18;92.23
73817;BME280;62146;53.232;-1.304;2022-08-19T05:12:14;100107.97;;;18.20;91.99
73817;BME280;62146;53.232;-1.304;2022-08-19T05:14:41;100108.63;;;17.98;92.15
73817;BME280;62146;53.232;-1.304;2022-08-19T05:17:08;100099.53;;;17.95;92.43
73817;BME280;62146;53.232;-1.304;2022-08-19T05:19:52;100115.84;;;17.98;92.02
73817;BME280;62146;53.232;-1.304;2022-08-19T05:22:37;100120.44;;;17.97;91.85
73817;BME280;62146;53.232;-1.304;2022-08-19T05:25:07;100125.16;;;17.87;92.03
73817;BME280;62146;53.232;-1.304;2022-08-19T05:27:38;100131.47;;;17.78;92.26
73817;BME280;62146;53.232;-1.304;2022-08-19T05:30:06;100140.03;;;17.80;92.16
73817;BME280;62146;53.232;-1.304;2022-08-19T05:32:32;100137.78;;;17.87;91.76
73817;BME280;62146;53.232;-1.304;2022-08-19T05:34:59;100135.66;;;17.84;91.85
73817;BME280;62146;53.232;-1.304;2022-08-19T05:37:26;100137.66;;;17.78;91.58
73817;BME280;62146;53.232;-1.304;2022-08-19T05:39:54;100142.06;;;17.69;91.77
73817;BME280;62146;53.232;-1.304;2022-08-19T05:42:21;100141.19;;;17.74;92.01
73817;BME280;62146;53.232;-1.304;2022-08-19T05:44:50;100143.16;;;17.69;91.95
73817;BME280;62146;53.232;-1.304;2022-08-19T05:47:18;100138.81;;;17.72;91.99
73817;BME280;62146;53.232;-1.304;2022-08-19T05:49:46;100147.22;;;17.66;91.83
73817;BME280;62146;53.232;-1.304;2022-08-19T05:52:14;100140.47;;;17.69;91.65
73817;BME280;62146;53.232;-1.304;2022-08-19T05:54:50;100137.66;;;17.78;91.18
73817;BME280;62146;53.232;-1.304;2022-08-19T05:57:20;100138.44;;;17.79;90.77
73817;BME280;62146;53.232;-1.304;2022-08-19T05:59:46;100138.13;;;17.80;90.10
73817;BME280;62146;53.232;-1.304;2022-08-19T06:02:18;100151.34;;;17.77;90.64
73817;BME280;62146;53.232;-1.304;2022-08-19T06:04:45;100141.41;;;17.77;90.66
73817;BME280;62146;53.232;-1.304;2022-08-19T06:07:12;100144.03;;;17.82;90.36
73817;BME280;62146;53.232;-1.304;2022-08-19T06:09:39;100162.38;;;17.75;90.68
73817;BME280;62146;53.232;-1.304;2022-08-19T06:12:09;100148.38;;;17.78;90.31
73817;BME280;62146;53.232;-1.304;2022-08-19T06:14:36;100157.50;;;17.77;90.46
73817;BME280;62146;53.232;-1.304;2022-08-19T06:17:07;100158.22;;;17.83;89.95
73817;BME280;62146;53.232;-1.304;2022-08-19T06:19:34;100151.63;;;17.94;89.04
73817;BME280;62146;53.232;-1.304;2022-08-19T06:22:06;100158.59;;;17.95;88.93
73817;BME280;62146;53.232;-1.304;2022-08-19T06:24:33;100155.91;;;17.95;88.57
73817;BME280;62146;53.232;-1.304;2022-08-19T06:27:02;100165.03;;;18.12;87.54
73817;BME280;62146;53.232;-1.304;2022-08-19T06:29:29;100154.72;;;18.19;86.41
73817;BME280;62146;53.232;-1.304;2022-08-19T06:31:58;100154.28;;;18.12;86.45
73817;BME280;62146;53.232;-1.304;2022-08-19T06:34:27;100168.22;;;18.14;86.41
73817;BME280;62146;53.232;-1.304;2022-08-19T06:36:55;100166.63;;;18.13;85.95
73817;BME280;62146;53.232;-1.304;2022-08-19T06:39:24;100166.25;;;18.19;85.47
73817;BME280;62146;53.232;-1.304;2022-08-19T06:41:56;100163.19;;;18.25;85.72
73817;BME280;62146;53.232;-1.304;2022-08-19T06:44:26;100162.09;;;18.26;84.98
73817;BME280;62146;53.232;-1.304;2022-08-19T06:46:55;100166.34;;;18.27;85.62
73817;BME280;62146;53.232;-1.304;2022-08-19T06:49:23;100165.78;;;18.30;84.66
73817;BME280;62146;53.232;-1.304;2022-08-19T06:51:50;100170.66;;;18.28;85.06
73817;BME280;62146;53.232;-1.304;2022-08-19T06:54:18;100179.00;;;18.27;84.61
73817;BME280;62146;53.232;-1.304;2022-08-19T06:56:46;100175.13;;;18.33;84.92
73817;BME280;62146;53.232;-1.304;2022-08-19T06:59:16;100190.34;;;18.24;85.31
73817;BME280;62146;53.232;-1.304;2022-08-19T07:01:47;100188.25;;;18.34;84.23
73817;BME280;62146;53.232;-1.304;2022-08-19T07:04:17;100187.00;;;18.45;84.06
73817;BME280;62146;53.232;-1.304;2022-08-19T07:06:45;100190.38;;;18.50;83.20
73817;BME280;62146;53.232;-1.304;2022-08-19T07:09:20;100183.44;;;18.50;82.46
73817;BME280;62146;53.232;-1.304;2022-08-19T07:11:49;100184.44;;;18.53;82.48
73817;BME280;62146;53.232;-1.304;2022-08-19T07:14:18;100185.63;;;18.61;82.23
73817;BME280;62146;53.232;-1.304;2022-08-19T07:16:48;100186.06;;;18.68;81.53
73817;BME280;62146;53.232;-1.304;2022-08-19T07:19:16;100191.22;;;18.64;81.64
73817;BME280;62146;53.232;-1.304;2022-08-19T07:21:45;100186.88;;;18.81;81.47
73817;BME280;62146;53.232;-1.304;2022-08-19T07:24:12;100192.47;;;18.85;79.51
73817;BME280;62146;53.232;-1.304;2022-08-19T07:26:41;100194.00;;;18.73;80.58
73817;BME280;62146;53.232;-1.304;2022-08-19T07:29:09;100190.84;;;18.84;80.15
73817;BME280;62146;53.232;-1.304;2022-08-19T07:31:36;100188.06;;;18.76;80.11
73817;BME280;62146;53.232;-1.304;2022-08-19T07:34:06;100193.25;;;18.85;80.26
73817;BME280;62146;53.232;-1.304;2022-08-19T07:36:36;100186.91;;;18.95;79.52
73817;BME280;62146;53.232;-1.304;2022-08-19T07:39:10;100180.03;;;19.02;79.50
73817;BME280;62146;53.232;-1.304;2022-08-19T07:41:37;100192.97;;;19.00;79.12
73817;BME280;62146;53.232;-1.304;2022-08-19T07:44:06;100198.84;;;19.02;79.25
73817;BME280;62146;53.232;-1.304;2022-08-19T07:46:35;100212.19;;;19.07;78.02
73817;BME280;62146;53.232;-1.304;2022-08-19T07:49:04;100215.88;;;19.11;77.81
73817;BME280;62146;53.232;-1.304;2022-08-19T07:51:31;100214.19;;;19.02;76.78
73817;BME280;62146;53.232;-1.304;2022-08-19T07:54:03;100205.63;;;19.00;77.05
73817;BME280;62146;53.232;-1.304;2022-08-19T07:56:30;100214.69;;;19.04;77.03
73817;BME280;62146;53.232;-1.304;2022-08-19T07:58:56;100205.72;;;19.21;78.00
73817;BME280;62146;53.232;-1.304;2022-08-19T08:01:25;100205.97;;;19.59;79.58
73817;BME280;62146;53.232;-1.304;2022-08-19T08:03:54;100210.53;;;19.86;82.13
73817;BME280;62146;53.232;-1.304;2022-08-19T08:06:39;100213.47;;;19.97;79.27
73817;BME280;62146;53.232;-1.304;2022-08-19T08:09:30;100226.81;;;20.02;76.60
73817;BME280;62146;53.232;-1.304;2022-08-19T08:14:56;100223.84;;;20.25;76.99
73817;BME280;62146;53.232;-1.304;2022-08-19T08:17:25;100229.75;;;20.14;74.03
73817;BME280;62146;53.232;-1.304;2022-08-19T08:20:13;100232.97;;;20.16;74.06
73817;BME280;62146;53.232;-1.304;2022-08-19T08:22:47;100226.19;;;20.18;72.08
73817;BME280;62146;53.232;-1.304;2022-08-19T08:25:33;100232.38;;;20.19;72.59
73817;BME280;62146;53.232;-1.304;2022-08-19T08:28:02;100230.13;;;20.21;70.42
73817;BME280;62146;53.232;-1.304;2022-08-19T08:30:30;100235.97;;;20.14;68.95
73817;BME280;62146;53.232;-1.304;2022-08-19T08:32:59;100234.22;;;19.97;67.87
73817;BME280;62146;53.232;-1.304;2022-08-19T08:35:28;100235.63;;;19.94;67.42
73817;BME280;62146;53.232;-1.304;2022-08-19T08:37:55;100239.13;;;19.68;65.64
73817;BME280;62146;53.232;-1.304;2022-08-19T08:43:29;100228.84;;;19.97;66.84
73817;BME280;62146;53.232;-1.304;2022-08-19T08:46:08;100228.00;;;20.10;66.45
73817;BME280;62146;53.232;-1.304;2022-08-19T08:48:58;100219.50;;;20.16;65.58
73817;BME280;62146;53.232;-1.304;2022-08-19T08:51:39;100221.03;;;20.30;65.05
73817;BME280;62146;53.232;-1.304;2022-08-19T08:54:14;100225.56;;;20.43;64.07
73817;BME280;62146;53.232;-1.304;2022-08-19T08:56:44;100216.81;;;20.38;63.88
73817;BME280;62146;53.232;-1.304;2022-08-19T08:59:22;100220.63;;;20.58;63.79
73817;BME280;62146;53.232;-1.304;2022-08-19T09:01:50;100222.50;;;20.79;62.99
73817;BME280;62146;53.232;-1.304;2022-08-19T09:04:17;100224.44;;;20.87;60.30
73817;BME280;62146;53.232;-1.304;2022-08-19T09:10:04;100221.34;;;21.48;57.26
73817;BME280;62146;53.232;-1.304;2022-08-19T09:15:14;100221.09;;;21.75;56.24
73817;BME280;62146;53.232;-1.304;2022-08-19T09:17:42;100239.03;;;21.71;54.79
73817;BME280;62146;53.232;-1.304;2022-08-19T09:20:19;100230.16;;;21.79;54.64
73817;BME280;62146;53.232;-1.304;2022-08-19T09:22:47;100233.34;;;22.23;53.08
73817;BME280;62146;53.232;-1.304;2022-08-19T09:25:19;100235.25;;;22.39;53.07
73817;BME280;62146;53.232;-1.304;2022-08-19T09:27:52;100234.28;;;22.60;53.14
73817;BME280;62146;53.232;-1.304;2022-08-19T09:30:30;100234.59;;;22.67;52.25
73817;BME280;62146;53.232;-1.304;2022-08-19T09:32:58;100232.88;;;23.08;52.77
73817;BME280;62146;53.232;-1.304;2022-08-19T09:35:27;100230.34;;;23.03;51.01
73817;BME280;62146;53.232;-1.304;2022-08-19T09:37:56;100227.28;;;23.49;50.76
73817;BME280;62146;53.232;-1.304;2022-08-19T09:40:27;100223.31;;;23.75;50.31
73817;BME280;62146;53.232;-1.304;2022-08-19T09:42:56;100227.22;;;24.06;49.09
73817;BME280;62146;53.232;-1.304;2022-08-19T09:45:23;100216.72;;;24.45;48.40
73817;BME280;62146;53.232;-1.304;2022-08-19T09:47:51;100231.72;;;24.43;48.37
73817;BME280;62146;53.232;-1.304;2022-08-19T09:50:21;100234.38;;;24.31;47.65
73817;BME280;62146;53.232;-1.304;2022-08-19T09:52:47;100238.84;;;24.47;47.21
73817;BME280;62146;53.232;-1.304;2022-08-19T09:55:23;100240.25;;;24.33;47.78
73817;BME280;62146;53.232;-1.304;2022-08-19T09:57:59;100238.28;;;24.21;47.91
73817;BME280;62146;53.232;-1.304;2022-08-19T10:00:26;100232.25;;;23.96;48.09
73817;BME280;62146;53.232;-1.304;2022-08-19T10:02:53;100242.69;;;24.06;48.25
73817;BME280;62146;53.232;-1.304;2022-08-19T10:05:19;100242.25;;;23.75;48.35
73817;BME280;62146;53.232;-1.304;2022-08-19T10:08:08;100248.59;;;23.59;47.59
73817;BME280;62146;53.232;-1.304;2022-08-19T10:10:40;100253.72;;;23.15;49.13
73817;BME280;62146;53.232;-1.304;2022-08-19T10:13:14;100248.38;;;23.36;51.13
73817;BME280;62146;53.232;-1.304;2022-08-19T10:15:41;100235.13;;;24.51;49.39
73817;BME280;62146;53.232;-1.304;2022-08-19T10:18:14;100237.00;;;24.39;49.45
73817;BME280;62146;53.232;-1.304;2022-08-19T10:20:41;100229.56;;;24.16;48.99
73817;BME280;62146;53.232;-1.304;2022-08-19T10:23:09;100236.56;;;24.17;48.58
73817;BME280;62146;53.232;-1.304;2022-08-19T10:25:35;100239.06;;;24.42;49.15
73817;BME280;62146;53.232;-1.304;2022-08-19T10:28:04;100239.31;;;24.49;50.83
73817;BME280;62146;53.232;-1.304;2022-08-19T10:30:36;100244.75;;;24.49;48.92
73817;BME280;62146;53.232;-1.304;2022-08-19T10:33:04;100239.63;;;24.16;48.55
73817;BME280;62146;53.232;-1.304;2022-08-19T10:35:37;100248.59;;;23.59;50.79
73817;BME280;62146;53.232;-1.304;2022-08-19T10:38:22;100246.03;;;23.63;51.34
73817;BME280;62146;53.232;-1.304;2022-08-19T10:40:58;100229.03;;;24.54;49.76
73817;BME280;62146;53.232;-1.304;2022-08-19T10:43:32;100242.47;;;25.27;47.32
73817;BME280;62146;53.232;-1.304;2022-08-19T10:46:02;100230.38;;;25.59;46.02
73817;BME280;62146;53.232;-1.304;2022-08-19T10:48:35;100232.63;;;26.32;44.09
73817;BME280;62146;53.232;-1.304;2022-08-19T10:51:03;100243.31;;;26.79;42.32
73817;BME280;62146;53.232;-1.304;2022-08-19T10:53:49;100235.94;;;26.94;43.30
73817;BME280;62146;53.232;-1.304;2022-08-19T10:56:17;100241.09;;;26.57;44.30
73817;BME280;62146;53.232;-1.304;2022-08-19T10:59:02;100234.53;;;26.31;43.84
73817;BME280;62146;53.232;-1.304;2022-08-19T11:01:31;100236.03;;;26.98;43.39
73817;BME280;62146;53.232;-1.304;2022-08-19T11:04:00;100240.53;;;26.63;42.73
73817;BME280;62146;53.232;-1.304;2022-08-19T11:06:27;100233.94;;;26.64;41.46
73817;BME280;62146;53.232;-1.304;2022-08-19T11:08:54;100225.97;;;26.71;42.46
73817;BME280;62146;53.232;-1.304;2022-08-19T11:11:21;100223.78;;;26.23;43.28
73817;BME280;62146;53.232;-1.304;2022-08-19T11:13:49;100225.19;;;26.05;44.15
73817;BME280;62146;53.232;-1.304;2022-08-19T11:16:24;100225.69;;;25.83;43.47
73817;BME280;62146;53.232;-1.304;2022-08-19T11:18:56;100230.38;;;25.71;44.89
73817;BME280;62146;53.232;-1.304;2022-08-19T11:21:30;100233.00;;;25.44;44.71
73817;BME280;62146;53.232;-1.304;2022-08-19T11:24:02;100238.72;;;25.19;45.97
73817;BME280;62146;53.232;-1.304;2022-08-19T11:26:30;100240.75;;;25.10;46.32
73817;BME280;62146;53.232;-1.304;2022-08-19T11:28:58;100228.19;;;25.77;44.58
73817;BME280;62146;53.232;-1.304;2022-08-19T11:31:29;100234.69;;;26.77;42.36
73817;BME280;62146;53.232;-1.304;2022-08-19T11:34:02;100236.31;;;25.88;42.65
73817;BME280;62146;53.232;-1.304;2022-08-19T11:36:29;100231.25;;;25.87;44.16
73817;BME280;62146;53.232;-1.304;2022-08-19T11:38:57;100226.41;;;25.69;44.73
73817;BME280;62146;53.232;-1.304;2022-08-19T11:41:24;100223.94;;;25.52;45.05
73817;BME280;62146;53.232;-1.304;2022-08-19T11:43:52;100231.34;;;25.31;46.28
73817;BME280;62146;53.232;-1.304;2022-08-19T11:46:23;100221.81;;;26.08;43.42
73817;BME280;62146;53.232;-1.304;2022-08-19T11:48:50;100210.84;;;26.32;41.46
73817;BME280;62146;53.232;-1.304;2022-08-19T11:51:20;100215.78;;;26.14;41.40
73817;BME280;62146;53.232;-1.304;2022-08-19T11:53:48;100219.09;;;26.89;40.29
73817;BME280;62146;53.232;-1.304;2022-08-19T11:56:17;100212.56;;;28.03;38.98
73817;BME280;62146;53.232;-1.304;2022-08-19T11:58:45;100212.69;;;28.29;38.36
73817;BME280;62146;53.232;-1.304;2022-08-19T12:01:14;100220.94;;;27.80;38.60
73817;BME280;62146;53.232;-1.304;2022-08-19T12:03:44;100215.16;;;28.15;39.05
73817;BME280;62146;53.232;-1.304;2022-08-19T12:06:13;100212.84;;;28.54;37.91
73817;BME280;62146;53.232;-1.304;2022-08-19T12:08:41;100212.28;;;28.64;36.89
73817;BME280;62146;53.232;-1.304;2022-08-19T12:11:10;100213.47;;;28.67;36.86
73817;BME280;62146;53.232;-1.304;2022-08-19T12:13:37;100209.13;;;29.76;36.12
73817;BME280;62146;53.232;-1.304;2022-08-19T12:16:12;100219.44;;;28.35;37.07
73817;BME280;62146;53.232;-1.304;2022-08-19T12:18:40;100235.94;;;27.25;38.83
73817;BME280;62146;53.232;-1.304;2022-08-19T12:21:10;100232.63;;;27.46;38.86
73817;BME280;62146;53.232;-1.304;2022-08-19T12:23:37;100224.25;;;28.04;37.39
73817;BME280;62146;53.232;-1.304;2022-08-19T12:26:04;100223.94;;;28.83;37.10
73817;BME280;62146;53.232;-1.304;2022-08-19T12:28:30;100231.81;;;29.77;36.24
73817;BME280;62146;53.232;-1.304;2022-08-19T12:30:57;100220.53;;;30.36;35.22
73817;BME280;62146;53.232;-1.304;2022-08-19T12:33:24;100221.34;;;30.40;35.83
73817;BME280;62146;53.232;-1.304;2022-08-19T12:35:54;100231.69;;;28.81;37.81
73817;BME280;62146;53.232;-1.304;2022-08-19T12:38:21;100226.38;;;28.88;37.72
73817;BME280;62146;53.232;-1.304;2022-08-19T12:40:50;100232.41;;;28.56;37.96
73817;BME280;62146;53.232;-1.304;2022-08-19T12:43:24;100226.56;;;28.21;38.95
73817;BME280;62146;53.232;-1.304;2022-08-19T12:45:50;100223.56;;;28.44;38.64
73817;BME280;62146;53.232;-1.304;2022-08-19T12:48:17;100218.97;;;28.89;37.16
73817;BME280;62146;53.232;-1.304;2022-08-19T12:51:05;100231.38;;;28.27;37.24
73817;BME280;62146;53.232;-1.304;2022-08-19T12:53:32;100217.09;;;27.81;37.15
73817;BME280;62146;53.232;-1.304;2022-08-19T12:56:02;100232.75;;;27.35;38.92
73817;BME280;62146;53.232;-1.304;2022-08-19T12:58:32;100231.81;;;29.29;37.53
73817;BME280;62146;53.232;-1.304;2022-08-19T13:01:27;100235.44;;;33.24;31.98
73817;BME280;62146;53.232;-1.304;2022-08-19T13:03:59;100239.03;;;32.20;33.17
73817;BME280;62146;53.232;-1.304;2022-08-19T13:06:26;100235.50;;;32.20;32.46
73817;BME280;62146;53.232;-1.304;2022-08-19T13:08:54;100242.03;;;31.42;33.95
73817;BME280;62146;53.232;-1.304;2022-08-19T13:11:25;100239.34;;;30.12;36.38